sensor_id;sensor_type;location;lat;lon;timestamp;P1;durP1;ratioP1;P2;durP2;ratioP2
8462;SDS011;4268;52.506;13.462;2023-03-24T00:00:13;7.27;;;5.13;;
8462;SDS011;4268;52.506;13.462;2023-03-24T00:02:41;5.53;;;4.90;;
8462;SDS011;4268;52.506;13.462;2023-03-24T00:05:08;4.80;;;4.50;;
8462;SDS011;4268;52.506;13.462;2023-03-24T00:07:39;4.97;;;4.57;;
8462;SDS011;4268;52.506;13.462;2023-03-24T00:10:09;4.80;;;4.40;;
8462;SDS011;4268;52.506;13.462;2023-03-24T00:12:39;4.27;;;3.97;;
8462;SDS011;4268;52.506;13.462;2023-03-24T00:15:07;4.80;;;4.50;;
8462;SDS011;4268;52.506;13.462;2023-03-24T00:17:35;4.80;;;4.27;;
8462;SDS011;4268;52.506;13.462;2023-03-24T00:20:02;4.80;;;4.40;;
8462;SDS011;4268;52.506;13.462;2023-03-24T00:22:35;4.90;;;4.50;;
8462;SDS011;4268;52.506;13.462;2023-03-24T00:25:00;4.93;;;4.27;;
8462;SDS011;4268;52.506;13.462;2023-03-24T00:27:28;4.37;;;4.00;;
8462;SDS011;4268;52.506;13.462;2023-03-24T00:29:54;4.60;;;4.20;;
8462;SDS011;4268;52.506;13.462;2023-03-24T00:32:23;4.70;;;4.30;;
8462;SDS011;4268;52.506;13.462;2023-03-24T00:34:49;4.83;;;4.40;;
8462;SDS011;4268;52.506;13.462;2023-03-24T00:37:16;4.13;;;3.90;;
8462;SDS011;4268;52.506;13.462;2023-03-24T00:39:41;4.33;;;4.03;;
8462;SDS011;4268;52.506;13.462;2023-03-24T00:42:07;4.27;;;3.97;;
8462;SDS011;4268;52.506;13.462;2023-03-24T00:44:33;4.50;;;4.10;;
8462;SDS011;4268;52.506;13.462;2023-03-24T00:47:00;4.80;;;4.40;;
8462;SDS011;4268;52.506;13.462;2023-03-24T00:49:27;4.20;;;3.90;;
8462;SDS011;4268;52.506;13.462;2023-03-24T00:52:13;4.37;;;4.07;;
8462;SDS011;4268;52.506;13.462;2023-03-24T00:54:42;4.47;;;3.77;;
8462;SDS011;4268;52.506;13.462;2023-03-24T00:57:10;3.77;;;3.57;;
8462;SDS011;4268;52.506;13.462;2023-03-24T00:59:37;4.00;;;3.70;;
8462;SDS011;4268;52.506;13.462;2023-03-24T01:02:07;4.10;;;3.70;;
8462;SDS011;4268;52.506;13.462;2023-03-24T01:04:36;3.70;;;3.40;;
8462;SDS011;4268;52.506;13.462;2023-03-24T01:07:02;3.60;;;3.40;;
8462;SDS011;4268;52.506;13.462;2023-03-24T01:09:28;3.90;;;3.60;;
8462;SDS011;4268;52.506;13.462;2023-03-24T01:11:53;3.80;;;3.50;;
8462;SDS011;4268;52.506;13.462;2023-03-24T01:14:20;4.30;;;3.90;;
8462;SDS011;4268;52.506;13.462;2023-03-24T01:16:45;4.20;;;3.90;;
8462;SDS011;4268;52.506;13.462;2023-03-24T01:19:11;4.60;;;4.20;;
8462;SDS011;4268;52.506;13.462;2023-03-24T01:21:36;3.60;;;3.40;;
8462;SDS011;4268;52.506;13.462;2023-03-24T01:24:03;3.73;;;3.43;;
8462;SDS011;4268;52.506;13.462;2023-03-24T01:26:29;4.27;;;3.90;;
8462;SDS011;4268;52.506;13.462;2023-03-24T01:28:55;3.80;;;3.50;;
8462;SDS011;4268;52.506;13.462;2023-03-24T01:31:21;3.73;;;3.53;;
8462;SDS011;4268;52.506;13.462;2023-03-24T01:33:46;3.63;;;3.33;;
8462;SDS011;4268;52.506;13.462;2023-03-24T01:36:12;4.03;;;3.70;;
8462;SDS011;4268;52.506;13.462;2023-03-24T01:38:37;3.50;;;3.30;;
8462;SDS011;4268;52.506;13.462;2023-03-24T01:41:04;3.93;;;3.63;;
8462;SDS011;4268;52.506;13.462;2023-03-24T01:43:31;4.00;;;3.60;;
8462;SDS011;4268;52.506;13.462;2023-03-24T01:46:05;3.60;;;3.40;;
8462;SDS011;4268;52.506;13.462;2023-03-24T01:48:44;3.80;;;3.60;;
8462;SDS011;4268;52.506;13.462;2023-03-24T01:53:44;3.60;;;3.40;;
8462;SDS011;4268;52.506;13.462;2023-03-24T01:56:15;3.97;;;3.67;;
8462;SDS011;4268;52.506;13.462;2023-03-24T01:58:42;3.70;;;3.50;;
8462;SDS011;4268;52.506;13.462;2023-03-24T02:01:12;3.77;;;3.43;;
8462;SDS011;4268;52.506;13.462;2023-03-24T02:03:38;3.80;;;3.60;;
8462;SDS011;4268;52.506;13.462;2023-03-24T02:06:05;3.80;;;3.50;;
8462;SDS011;4268;52.506;13.462;2023-03-24T02:11:18;3.60;;;3.40;;
8462;SDS011;4268;52.506;13.462;2023-03-24T02:13:44;3.63;;;3.43;;
8462;SDS011;4268;52.506;13.462;2023-03-24T02:24:37;3.73;;;3.53;;
8462;SDS011;4268;52.506;13.462;2023-03-24T02:30:03;3.67;;;3.47;;
8462;SDS011;4268;52.506;13.462;2023-03-24T02:35:49;3.90;;;3.60;;
8462;SDS011;4268;52.506;13.462;2023-03-24T02:41:32;3.70;;;3.50;;
8462;SDS011;4268;52.506;13.462;2023-03-24T02:44:34;3.83;;;3.63;;
8462;SDS011;4268;52.506;13.462;2023-03-24T02:47:47;4.03;;;3.73;;
8462;SDS011;4268;52.506;13.462;2023-03-24T02:50:36;3.87;;;3.67;;
8462;SDS011;4268;52.506;13.462;2023-03-24T02:53:29;3.93;;;3.63;;
8462;SDS011;4268;52.506;13.462;2023-03-24T02:56:08;3.90;;;3.60;;
8462;SDS011;4268;52.506;13.462;2023-03-24T02:58:48;3.50;;;3.20;;
8462;SDS011;4268;52.506;13.462;2023-03-24T03:01:19;3.50;;;3.20;;
8462;SDS011;4268;52.506;13.462;2023-03-24T03:03:55;3.40;;;3.20;;
8462;SDS011;4268;52.506;13.462;2023-03-24T03:06:43;3.47;;;3.20;;
8462;SDS011;4268;52.506;13.462;2023-03-24T03:09:14;3.63;;;3.33;;
8462;SDS011;4268;52.506;13.462;2023-03-24T03:11:42;3.53;;;3.33;;
8462;SDS011;4268;52.506;13.462;2023-03-24T03:14:13;3.80;;;3.60;;
8462;SDS011;4268;52.506;13.462;2023-03-24T03:16:45;3.60;;;3.40;;
8462;SDS011;4268;52.506;13.462;2023-03-24T03:19:18;4.20;;;3.90;;
8462;SDS011;4268;52.506;13.462;2023-03-24T03:21:47;3.60;;;3.40;;
8462;SDS011;4268;52.506;13.462;2023-03-24T03:24:15;3.70;;;3.50;;
8462;SDS011;4268;52.506;13.462;2023-03-24T03:26:50;4.53;;;4.17;;
8462;SDS011;4268;52.506;13.462;2023-03-24T03:29:21;3.90;;;3.70;;
8462;SDS011;4268;52.506;13.462;2023-03-24T03:31:51;4.57;;;4.23;;
8462;SDS011;4268;52.506;13.462;2023-03-24T03:37:12;5.00;;;4.70;;
8462;SDS011;4268;52.506;13.462;2023-03-24T03:39:45;4.70;;;4.40;;
8462;SDS011;4268;52.506;13.462;2023-03-24T03:42:13;6.87;;;6.30;;
8462;SDS011;4268;52.506;13.462;2023-03-24T03:44:39;4.70;;;4.40;;
8462;SDS011;4268;52.506;13.462;2023-03-24T03:47:04;5.17;;;4.87;;
8462;SDS011;4268;52.506;13.462;2023-03-24T03:49:30;4.77;;;4.47;;
8462;SDS011;4268;52.506;13.462;2023-03-24T03:51:56;4.93;;;4.63;;
8462;SDS011;4268;52.506;13.462;2023-03-24T03:54:21;4.43;;;4.13;;
8462;SDS011;4268;52.506;13.462;2023-03-24T03:56:51;5.30;;;4.90;;
8462;SDS011;4268;52.506;13.462;2023-03-24T03:59:26;5.43;;;4.90;;
8462;SDS011;4268;52.506;13.462;2023-03-24T04:01:59;5.43;;;5.03;;
8462;SDS011;4268;52.506;13.462;2023-03-24T04:04:47;11.07;;;10.30;;
8462;SDS011;4268;52.506;13.462;2023-03-24T04:07:45;5.77;;;5.37;;
8462;SDS011;4268;52.506;13.462;2023-03-24T04:10:30;6.47;;;5.97;;
8462;SDS011;4268;52.506;13.462;2023-03-24T04:13:27;7.30;;;6.80;;
8462;SDS011;4268;52.506;13.462;2023-03-24T04:21:42;7.30;;;6.90;;
8462;SDS011;4268;52.506;13.462;2023-03-24T04:24:22;8.00;;;7.40;;
8462;SDS011;4268;52.506;13.462;2023-03-24T04:27:26;7.10;;;6.67;;
8462;SDS011;4268;52.506;13.462;2023-03-24T04:30:13;7.73;;;7.13;;
8462;SDS011;4268;52.506;13.462;2023-03-24T04:33:02;7.50;;;7.00;;
8462;SDS011;4268;52.506;13.462;2023-03-24T04:36:04;6.60;;;6.20;;
8462;SDS011;4268;52.506;13.462;2023-03-24T04:38:46;8.73;;;8.13;;
8462;SDS011;4268;52.506;13.462;2023-03-24T04:41:17;7.23;;;6.70;;
8462;SDS011;4268;52.506;13.462;2023-03-24T04:43:45;7.20;;;6.70;;
8462;SDS011;4268;52.506;13.462;2023-03-24T04:46:12;6.40;;;6.00;;
8462;SDS011;4268;52.506;13.462;2023-03-24T04:48:41;6.83;;;6.33;;
8462;SDS011;4268;52.506;13.462;2023-03-24T04:51:08;6.87;;;6.30;;
8462;SDS011;4268;52.506;13.462;2023-03-24T04:53:35;6.80;;;6.30;;
8462;SDS011;4268;52.506;13.462;2023-03-24T04:58:35;7.30;;;6.80;;
8462;SDS011;4268;52.506;13.462;2023-03-24T05:01:01;6.53;;;6.10;;
8462;SDS011;4268;52.506;13.462;2023-03-24T05:03:27;6.40;;;5.90;;
8462;SDS011;4268;52.506;13.462;2023-03-24T05:05:52;7.43;;;6.93;;
8462;SDS011;4268;52.506;13.462;2023-03-24T05:08:18;5.70;;;5.40;;
8462;SDS011;4268;52.506;13.462;2023-03-24T05:10:44;6.67;;;6.17;;
8462;SDS011;4268;52.506;13.462;2023-03-24T05:13:10;7.00;;;6.50;;
8462;SDS011;4268;52.506;13.462;2023-03-24T05:15:36;6.63;;;6.13;;
8462;SDS011;4268;52.506;13.462;2023-03-24T05:18:03;6.93;;;6.43;;
8462;SDS011;4268;52.506;13.462;2023-03-24T05:20:29;6.73;;;6.23;;
8462;SDS011;4268;52.506;13.462;2023-03-24T05:22:54;6.47;;;5.87;;
8462;SDS011;4268;52.506;13.462;2023-03-24T05:25:20;6.37;;;5.97;;
8462;SDS011;4268;52.506;13.462;2023-03-24T05:27:46;6.57;;;6.07;;
8462;SDS011;4268;52.506;13.462;2023-03-24T05:30:12;6.60;;;6.00;;
8462;SDS011;4268;52.506;13.462;2023-03-24T05:32:39;6.20;;;5.70;;
8462;SDS011;4268;52.506;13.462;2023-03-24T05:35:06;6.80;;;6.30;;
8462;SDS011;4268;52.506;13.462;2023-03-24T05:37:31;6.90;;;6.50;;
8462;SDS011;4268;52.506;13.462;2023-03-24T05:39:57;6.83;;;6.43;;
8462;SDS011;4268;52.506;13.462;2023-03-24T05:42:23;7.33;;;6.73;;
8462;SDS011;4268;52.506;13.462;2023-03-24T05:44:48;7.47;;;6.97;;
8462;SDS011;4268;52.506;13.462;2023-03-24T05:47:14;6.33;;;5.93;;
8462;SDS011;4268;52.506;13.462;2023-03-24T05:49:40;6.00;;;5.50;;
8462;SDS011;4268;52.506;13.462;2023-03-24T05:52:07;5.67;;;5.27;;
8462;SDS011;4268;52.506;13.462;2023-03-24T05:54:33;6.13;;;5.70;;
8462;SDS011;4268;52.506;13.462;2023-03-24T05:56:59;5.80;;;5.40;;
8462;SDS011;4268;52.506;13.462;2023-03-24T05:59:25;6.33;;;5.83;;
8462;SDS011;4268;52.506;13.462;2023-03-24T06:01:51;5.57;;;5.17;;
8462;SDS011;4268;52.506;13.462;2023-03-24T06:04:20;5.63;;;5.23;;
8462;SDS011;4268;52.506;13.462;2023-03-24T06:06:46;5.40;;;5.00;;
8462;SDS011;4268;52.506;13.462;2023-03-24T06:09:12;5.97;;;5.47;;
8462;SDS011;4268;52.506;13.462;2023-03-24T06:11:39;5.10;;;4.70;;
8462;SDS011;4268;52.506;13.462;2023-03-24T06:14:04;5.50;;;5.10;;
8462;SDS011;4268;52.506;13.462;2023-03-24T06:16:31;5.73;;;5.33;;
8462;SDS011;4268;52.506;13.462;2023-03-24T06:18:57;5.67;;;5.27;;
8462;SDS011;4268;52.506;13.462;2023-03-24T06:21:25;5.27;;;4.90;;
8462;SDS011;4268;52.506;13.462;2023-03-24T06:23:55;4.80;;;4.40;;
8462;SDS011;4268;52.506;13.462;2023-03-24T06:26:21;4.83;;;4.53;;
8462;SDS011;4268;52.506;13.462;2023-03-24T06:28:47;5.33;;;4.93;;
8462;SDS011;4268;52.506;13.462;2023-03-24T06:31:15;4.87;;;4.47;;
8462;SDS011;4268;52.506;13.462;2023-03-24T06:33:44;5.17;;;4.77;;
8462;SDS011;4268;52.506;13.462;2023-03-24T06:36:10;5.87;;;5.40;;
8462;SDS011;4268;52.506;13.462;2023-03-24T06:38:36;4.93;;;4.53;;
8462;SDS011;4268;52.506;13.462;2023-03-24T06:41:02;5.40;;;5.00;;
8462;SDS011;4268;52.506;13.462;2023-03-24T06:43:30;5.27;;;4.87;;
8462;SDS011;4268;52.506;13.462;2023-03-24T06:45:56;5.20;;;4.80;;
8462;SDS011;4268;52.506;13.462;2023-03-24T06:48:21;7.70;;;7.20;;
8462;SDS011;4268;52.506;13.462;2023-03-24T06:50:47;6.57;;;6.17;;
8462;SDS011;4268;52.506;13.462;2023-03-24T06:53:13;5.50;;;5.13;;
8462;SDS011;4268;52.506;13.462;2023-03-24T06:55:38;4.80;;;4.50;;
8462;SDS011;4268;52.506;13.462;2023-03-24T06:58:04;4.60;;;4.30;;
8462;SDS011;4268;52.506;13.462;2023-03-24T07:00:29;5.10;;;4.73;;
8462;SDS011;4268;52.506;13.462;2023-03-24T07:02:55;5.13;;;4.73;;
8462;SDS011;4268;52.506;13.462;2023-03-24T07:05:21;4.90;;;4.40;;
8462;SDS011;4268;52.506;13.462;2023-03-24T07:07:47;4.70;;;4.40;;
8462;SDS011;4268;52.506;13.462;2023-03-24T07:10:13;5.00;;;4.60;;
8462;SDS011;4268;52.506;13.462;2023-03-24T07:12:40;4.53;;;4.23;;
8462;SDS011;4268;52.506;13.462;2023-03-24T07:15:06;4.53;;;4.13;;
8462;SDS011;4268;52.506;13.462;2023-03-24T07:17:33;5.70;;;4.43;;
8462;SDS011;4268;52.506;13.462;2023-03-24T07:19:58;4.63;;;4.30;;
8462;SDS011;4268;52.506;13.462;2023-03-24T07:22:24;4.77;;;4.37;;
8462;SDS011;4268;52.506;13.462;2023-03-24T07:24:50;4.67;;;4.27;;
8462;SDS011;4268;52.506;13.462;2023-03-24T07:27:16;4.80;;;4.40;;
8462;SDS011;4268;52.506;13.462;2023-03-24T07:29:41;4.53;;;4.13;;
8462;SDS011;4268;52.506;13.462;2023-03-24T07:32:07;4.90;;;4.50;;
8462;SDS011;4268;52.506;13.462;2023-03-24T07:34:33;4.57;;;4.20;;
8462;SDS011;4268;52.506;13.462;2023-03-24T07:37:00;4.73;;;4.43;;
8462;SDS011;4268;52.506;13.462;2023-03-24T07:39:25;5.40;;;5.10;;
8462;SDS011;4268;52.506;13.462;2023-03-24T07:41:51;5.00;;;4.50;;
8462;SDS011;4268;52.506;13.462;2023-03-24T07:44:17;4.50;;;3.80;;
8462;SDS011;4268;52.506;13.462;2023-03-24T07:46:43;4.07;;;3.80;;
8462;SDS011;4268;52.506;13.462;2023-03-24T07:49:08;4.57;;;4.00;;
8462;SDS011;4268;52.506;13.462;2023-03-24T07:51:34;4.60;;;4.20;;
8462;SDS011;4268;52.506;13.462;2023-03-24T07:54:00;4.50;;;4.20;;
8462;SDS011;4268;52.506;13.462;2023-03-24T07:56:25;4.47;;;4.17;;
8462;SDS011;4268;52.506;13.462;2023-03-24T07:58:51;4.10;;;3.80;;
8462;SDS011;4268;52.506;13.462;2023-03-24T08:01:16;3.70;;;3.50;;
8462;SDS011;4268;52.506;13.462;2023-03-24T08:03:42;4.13;;;3.83;;
8462;SDS011;4268;52.506;13.462;2023-03-24T08:06:07;4.50;;;4.10;;
8462;SDS011;4268;52.506;13.462;2023-03-24T08:08:34;4.77;;;4.37;;
8462;SDS011;4268;52.506;13.462;2023-03-24T08:11:00;4.20;;;3.90;;
8462;SDS011;4268;52.506;13.462;2023-03-24T08:13:26;4.40;;;4.10;;
8462;SDS011;4268;52.506;13.462;2023-03-24T08:15:52;4.40;;;4.10;;
8462;SDS011;4268;52.506;13.462;2023-03-24T08:18:18;4.40;;;4.00;;
8462;SDS011;4268;52.506;13.462;2023-03-24T08:20:48;4.13;;;3.83;;
8462;SDS011;4268;52.506;13.462;2023-03-24T08:23:15;4.50;;;4.10;;
8462;SDS011;4268;52.506;13.462;2023-03-24T08:25:42;4.27;;;3.90;;
8462;SDS011;4268;52.506;13.462;2023-03-24T08:28:07;4.40;;;4.10;;
8462;SDS011;4268;52.506;13.462;2023-03-24T08:30:33;4.33;;;4.03;;
8462;SDS011;4268;52.506;13.462;2023-03-24T08:33:00;4.17;;;3.93;;
8462;SDS011;4268;52.506;13.462;2023-03-24T08:35:28;4.40;;;4.10;;
8462;SDS011;4268;52.506;13.462;2023-03-24T08:37:56;4.33;;;4.03;;
8462;SDS011;4268;52.506;13.462;2023-03-24T08:40:23;4.37;;;4.07;;
8462;SDS011;4268;52.506;13.462;2023-03-24T08:42:50;4.63;;;4.23;;
8462;SDS011;4268;52.506;13.462;2023-03-24T08:45:21;4.10;;;3.80;;
8462;SDS011;4268;52.506;13.462;2023-03-24T08:47:51;4.53;;;4.23;;
8462;SDS011;4268;52.506;13.462;2023-03-24T08:50:17;4.53;;;4.13;;
8462;SDS011;4268;52.506;13.462;2023-03-24T08:52:48;5.00;;;4.60;;
8462;SDS011;4268;52.506;13.462;2023-03-24T08:55:17;4.60;;;4.30;;
8462;SDS011;4268;52.506;13.462;2023-03-24T08:57:44;4.30;;;4.00;;
8462;SDS011;4268;52.506;13.462;2023-03-24T09:00:10;4.50;;;4.20;;
8462;SDS011;4268;52.506;13.462;2023-03-24T09:02:40;4.70;;;4.30;;
8462;SDS011;4268;52.506;13.462;2023-03-24T09:05:07;4.40;;;4.10;;
8462;SDS011;4268;52.506;13.462;2023-03-24T09:07:32;4.43;;;4.13;;
8462;SDS011;4268;52.506;13.462;2023-03-24T09:09:58;4.80;;;4.50;;
8462;SDS011;4268;52.506;13.462;2023-03-24T09:12:25;4.50;;;4.20;;
8462;SDS011;4268;52.506;13.462;2023-03-24T09:14:50;4.40;;;4.10;;
8462;SDS011;4268;52.506;13.462;2023-03-24T09:17:19;4.60;;;4.20;;
8462;SDS011;4268;52.506;13.462;2023-03-24T09:19:45;4.53;;;4.23;;
8462;SDS011;4268;52.506;13.462;2023-03-24T09:22:11;4.50;;;4.20;;
8462;SDS011;4268;52.506;13.462;2023-03-24T09:24:38;4.93;;;4.63;;
8462;SDS011;4268;52.506;13.462;2023-03-24T09:27:03;4.60;;;4.30;;
8462;SDS011;4268;52.506;13.462;2023-03-24T09:29:29;4.57;;;4.27;;
8462;SDS011;4268;52.506;13.462;2023-03-24T09:31:55;4.40;;;4.03;;
8462;SDS011;4268;52.506;13.462;2023-03-24T09:34:21;4.47;;;4.17;;
8462;SDS011;4268;52.506;13.462;2023-03-24T09:36:48;4.40;;;4.00;;
8462;SDS011;4268;52.506;13.462;2023-03-24T09:39:15;4.73;;;4.37;;
8462;SDS011;4268;52.506;13.462;2023-03-24T09:41:41;4.20;;;3.90;;
8462;SDS011;4268;52.506;13.462;2023-03-24T09:44:29;4.20;;;3.90;;
8462;SDS011;4268;52.506;13.462;2023-03-24T09:49:40;4.70;;;4.40;;
8462;SDS011;4268;52.506;13.462;2023-03-24T09:52:11;4.20;;;3.80;;
8462;SDS011;4268;52.506;13.462;2023-03-24T09:54:54;4.20;;;3.90;;
8462;SDS011;4268;52.506;13.462;2023-03-24T09:57:42;4.60;;;4.30;;
8462;SDS011;4268;52.506;13.462;2023-03-24T10:00:27;4.40;;;4.10;;
8462;SDS011;4268;52.506;13.462;2023-03-24T10:02:57;4.20;;;3.80;;
8462;SDS011;4268;52.506;13.462;2023-03-24T10:05:36;4.30;;;4.00;;
8462;SDS011;4268;52.506;13.462;2023-03-24T10:10:59;8.47;;;7.97;;
8462;SDS011;4268;52.506;13.462;2023-03-24T10:16:22;6.53;;;6.03;;
8462;SDS011;4268;52.506;13.462;2023-03-24T10:24:58;3.77;;;3.47;;
8462;SDS011;4268;52.506;13.462;2023-03-24T10:27:31;3.20;;;3.00;;
8462;SDS011;4268;52.506;13.462;2023-03-24T10:30:07;3.20;;;3.00;;
8462;SDS011;4268;52.506;13.462;2023-03-24T10:32:44;3.20;;;3.00;;
8462;SDS011;4268;52.506;13.462;2023-03-24T10:35:14;3.40;;;3.20;;
8462;SDS011;4268;52.506;13.462;2023-03-24T10:37:46;3.30;;;3.10;;
8462;SDS011;4268;52.506;13.462;2023-03-24T10:40:14;3.60;;;3.20;;
8462;SDS011;4268;52.506;13.462;2023-03-24T10:42:42;3.93;;;3.60;;
8462;SDS011;4268;52.506;13.462;2023-03-24T10:45:11;3.40;;;3.10;;
8462;SDS011;4268;52.506;13.462;2023-03-24T10:47:42;3.90;;;3.60;;
8462;SDS011;4268;52.506;13.462;2023-03-24T10:50:08;3.60;;;3.40;;
8462;SDS011;4268;52.506;13.462;2023-03-24T10:52:53;3.70;;;3.50;;
8462;SDS011;4268;52.506;13.462;2023-03-24T10:55:20;4.60;;;4.20;;
8462;SDS011;4268;52.506;13.462;2023-03-24T10:57:49;4.07;;;3.77;;
8462;SDS011;4268;52.506;13.462;2023-03-24T11:03:10;5.70;;;5.40;;
8462;SDS011;4268;52.506;13.462;2023-03-24T11:05:38;4.00;;;3.70;;
8462;SDS011;4268;52.506;13.462;2023-03-24T11:08:17;4.03;;;3.83;;
8462;SDS011;4268;52.506;13.462;2023-03-24T11:10:55;3.73;;;3.43;;
8462;SDS011;4268;52.506;13.462;2023-03-24T11:13:31;3.40;;;3.20;;
8462;SDS011;4268;52.506;13.462;2023-03-24T11:21:45;3.40;;;3.20;;
8462;SDS011;4268;52.506;13.462;2023-03-24T11:24:13;3.80;;;3.07;;
8462;SDS011;4268;52.506;13.462;2023-03-24T11:26:43;3.60;;;3.10;;
8462;SDS011;4268;52.506;13.462;2023-03-24T11:29:18;3.00;;;2.90;;
8462;SDS011;4268;52.506;13.462;2023-03-24T11:32:01;3.20;;;3.00;;
8462;SDS011;4268;52.506;13.462;2023-03-24T11:34:33;3.37;;;3.10;;
8462;SDS011;4268;52.506;13.462;2023-03-24T11:37:16;3.60;;;3.40;;
8462;SDS011;4268;52.506;13.462;2023-03-24T11:39:46;4.03;;;3.83;;
8462;SDS011;4268;52.506;13.462;2023-03-24T11:42:40;3.27;;;3.00;;
8462;SDS011;4268;52.506;13.462;2023-03-24T11:45:22;3.20;;;3.00;;
8462;SDS011;4268;52.506;13.462;2023-03-24T11:47:52;3.00;;;2.80;;
8462;SDS011;4268;52.506;13.462;2023-03-24T11:50:30;3.37;;;3.17;;
8462;SDS011;4268;52.506;13.462;2023-03-24T11:58:30;3.37;;;3.17;;
8462;SDS011;4268;52.506;13.462;2023-03-24T12:01:17;3.27;;;3.07;;
8462;SDS011;4268;52.506;13.462;2023-03-24T12:12:22;3.37;;;3.17;;
8462;SDS011;4268;52.506;13.462;2023-03-24T12:14:49;3.30;;;3.10;;
8462;SDS011;4268;52.506;13.462;2023-03-24T12:17:46;3.50;;;3.30;;
8462;SDS011;4268;52.506;13.462;2023-03-24T12:20:27;3.50;;;3.30;;
8462;SDS011;4268;52.506;13.462;2023-03-24T12:28:54;3.53;;;3.23;;
8462;SDS011;4268;52.506;13.462;2023-03-24T12:37:06;3.30;;;3.10;;
8462;SDS011;4268;52.506;13.462;2023-03-24T12:40:10;3.30;;;3.10;;
8462;SDS011;4268;52.506;13.462;2023-03-24T12:42:46;2.90;;;2.80;;
8462;SDS011;4268;52.506;13.462;2023-03-24T12:45:20;2.90;;;2.70;;
8462;SDS011;4268;52.506;13.462;2023-03-24T12:50:42;3.00;;;2.80;;
8462;SDS011;4268;52.506;13.462;2023-03-24T12:59:08;3.20;;;2.90;;
8462;SDS011;4268;52.506;13.462;2023-03-24T13:01:59;2.90;;;2.70;;
8462;SDS011;4268;52.506;13.462;2023-03-24T13:04:38;4.47;;;2.80;;
8462;SDS011;4268;52.506;13.462;2023-03-24T13:07:10;3.10;;;2.80;;
8462;SDS011;4268;52.506;13.462;2023-03-24T13:15:15;3.20;;;2.90;;
8462;SDS011;4268;52.506;13.462;2023-03-24T13:18:04;4.23;;;2.90;;
8462;SDS011;4268;52.506;13.462;2023-03-24T13:20:42;3.07;;;2.93;;
8462;SDS011;4268;52.506;13.462;2023-03-24T13:23:41;3.10;;;2.90;;
8462;SDS011;4268;52.506;13.462;2023-03-24T13:31:15;3.40;;;3.20;;
8462;SDS011;4268;52.506;13.462;2023-03-24T13:33:43;3.50;;;3.30;;
8462;SDS011;4268;52.506;13.462;2023-03-24T13:39:13;4.10;;;3.70;;
8462;SDS011;4268;52.506;13.462;2023-03-24T13:41:41;3.83;;;3.50;;
8462;SDS011;4268;52.506;13.462;2023-03-24T13:44:22;3.77;;;3.57;;
8462;SDS011;4268;52.506;13.462;2023-03-24T13:46:58;3.50;;;3.30;;
8462;SDS011;4268;52.506;13.462;2023-03-24T13:49:34;3.40;;;3.20;;
8462;SDS011;4268;52.506;13.462;2023-03-24T13:52:03;3.83;;;3.53;;
8462;SDS011;4268;52.506;13.462;2023-03-24T13:54:30;3.30;;;3.10;;
8462;SDS011;4268;52.506;13.462;2023-03-24T13:57:04;3.37;;;3.10;;
8462;SDS011;4268;52.506;13.462;2023-03-24T14:08:13;3.97;;;3.57;;
8462;SDS011;4268;52.506;13.462;2023-03-24T14:10:44;3.30;;;3.10;;
8462;SDS011;4268;52.506;13.462;2023-03-24T14:15:45;3.50;;;3.20;;
8462;SDS011;4268;52.506;13.462;2023-03-24T14:26:05;2.47;;;2.37;;
8462;SDS011;4268;52.506;13.462;2023-03-24T14:28:35;2.70;;;2.50;;
8462;SDS011;4268;52.506;13.462;2023-03-24T14:33:39;3.07;;;2.87;;
8462;SDS011;4268;52.506;13.462;2023-03-24T14:36:30;2.67;;;2.57;;
8462;SDS011;4268;52.506;13.462;2023-03-24T14:41:53;2.40;;;2.30;;
8462;SDS011;4268;52.506;13.462;2023-03-24T14:47:10;3.07;;;2.80;;
8462;SDS011;4268;52.506;13.462;2023-03-24T14:49:40;3.70;;;3.00;;
8462;SDS011;4268;52.506;13.462;2023-03-24T14:52:12;3.37;;;2.97;;
8462;SDS011;4268;52.506;13.462;2023-03-24T14:57:28;3.23;;;3.03;;
8462;SDS011;4268;52.506;13.462;2023-03-24T15:00:04;3.60;;;3.30;;
8462;SDS011;4268;52.506;13.462;2023-03-24T15:02:44;4.57;;;3.40;;
8462;SDS011;4268;52.506;13.462;2023-03-24T15:07:57;3.77;;;3.30;;
8462;SDS011;4268;52.506;13.462;2023-03-24T15:10:31;5.10;;;3.53;;
8462;SDS011;4268;52.506;13.462;2023-03-24T15:13:03;3.80;;;3.50;;
8462;SDS011;4268;52.506;13.462;2023-03-24T15:15:29;3.87;;;3.53;;
8462;SDS011;4268;52.506;13.462;2023-03-24T15:17:55;3.63;;;3.37;;
8462;SDS011;4268;52.506;13.462;2023-03-24T15:20:30;3.40;;;3.10;;
8462;SDS011;4268;52.506;13.462;2023-03-24T15:23:04;3.10;;;2.90;;
8462;SDS011;4268;52.506;13.462;2023-03-24T15:25:31;3.70;;;3.40;;
8462;SDS011;4268;52.506;13.462;2023-03-24T15:27:57;4.43;;;3.00;;
8462;SDS011;4268;52.506;13.462;2023-03-24T15:30:22;3.03;;;2.60;;
8462;SDS011;4268;52.506;13.462;2023-03-24T15:32:49;3.07;;;2.80;;
8462;SDS011;4268;52.506;13.462;2023-03-24T15:35:16;2.83;;;2.50;;
8462;SDS011;4268;52.506;13.462;2023-03-24T15:37:48;2.60;;;2.40;;
8462;SDS011;4268;52.506;13.462;2023-03-24T15:42:57;3.23;;;2.50;;
8462;SDS011;4268;52.506;13.462;2023-03-24T15:48:06;2.87;;;2.50;;
8462;SDS011;4268;52.506;13.462;2023-03-24T15:50:37;3.60;;;3.27;;
8462;SDS011;4268;52.506;13.462;2023-03-24T15:53:05;2.83;;;2.63;;
8462;SDS011;4268;52.506;13.462;2023-03-24T15:56:00;3.70;;;2.83;;
8462;SDS011;4268;52.506;13.462;2023-03-24T15:58:28;3.20;;;2.87;;
8462;SDS011;4268;52.506;13.462;2023-03-24T16:00:56;2.90;;;2.70;;
8462;SDS011;4268;52.506;13.462;2023-03-24T16:03:24;2.73;;;2.53;;
8462;SDS011;4268;52.506;13.462;2023-03-24T16:05:52;2.80;;;2.60;;
8462;SDS011;4268;52.506;13.462;2023-03-24T16:08:24;4.07;;;2.90;;
8462;SDS011;4268;52.506;13.462;2023-03-24T16:10:58;4.00;;;3.40;;
8462;SDS011;4268;52.506;13.462;2023-03-24T16:13:25;4.80;;;3.33;;
8462;SDS011;4268;52.506;13.462;2023-03-24T16:18:29;3.20;;;2.90;;
8462;SDS011;4268;52.506;13.462;2023-03-24T16:21:08;4.03;;;3.00;;
8462;SDS011;4268;52.506;13.462;2023-03-24T16:23:37;4.03;;;3.10;;
8462;SDS011;4268;52.506;13.462;2023-03-24T16:26:03;3.40;;;2.70;;
8462;SDS011;4268;52.506;13.462;2023-03-24T16:28:29;4.37;;;3.10;;
8462;SDS011;4268;52.506;13.462;2023-03-24T16:30:59;3.10;;;2.80;;
8462;SDS011;4268;52.506;13.462;2023-03-24T16:33:27;3.93;;;3.00;;
8462;SDS011;4268;52.506;13.462;2023-03-24T16:35:54;3.17;;;2.83;;
8462;SDS011;4268;52.506;13.462;2023-03-24T16:38:20;3.97;;;2.77;;
8462;SDS011;4268;52.506;13.462;2023-03-24T16:40:49;4.27;;;2.90;;
8462;SDS011;4268;52.506;13.462;2023-03-24T16:43:17;2.87;;;2.60;;
8462;SDS011;4268;52.506;13.462;2023-03-24T16:45:43;3.53;;;3.10;;
8462;SDS011;4268;52.506;13.462;2023-03-24T16:48:13;3.40;;;3.10;;
8462;SDS011;4268;52.506;13.462;2023-03-24T16:50:39;3.93;;;3.60;;
8462;SDS011;4268;52.506;13.462;2023-03-24T16:53:06;3.30;;;3.00;;
8462;SDS011;4268;52.506;13.462;2023-03-24T16:55:33;3.37;;;3.07;;
8462;SDS011;4268;52.506;13.462;2023-03-24T16:57:59;4.03;;;3.67;;
8462;SDS011;4268;52.506;13.462;2023-03-24T17:00:25;4.57;;;3.80;;
8462;SDS011;4268;52.506;13.462;2023-03-24T17:02:51;5.63;;;3.40;;
8462;SDS011;4268;52.506;13.462;2023-03-24T17:05:21;3.33;;;3.03;;
8462;SDS011;4268;52.506;13.462;2023-03-24T17:07:51;3.47;;;3.17;;
8462;SDS011;4268;52.506;13.462;2023-03-24T17:10:17;4.50;;;3.47;;
8462;SDS011;4268;52.506;13.462;2023-03-24T17:12:43;3.93;;;3.47;;
8462;SDS011;4268;52.506;13.462;2023-03-24T17:15:15;4.00;;;3.60;;
8462;SDS011;4268;52.506;13.462;2023-03-24T17:17:51;4.13;;;3.70;;
8462;SDS011;4268;52.506;13.462;2023-03-24T17:20:18;4.73;;;3.80;;
8462;SDS011;4268;52.506;13.462;2023-03-24T17:22:48;5.10;;;4.30;;
8462;SDS011;4268;52.506;13.462;2023-03-24T17:25:16;5.60;;;4.43;;
8462;SDS011;4268;52.506;13.462;2023-03-24T17:27:45;4.57;;;4.17;;
8462;SDS011;4268;52.506;13.462;2023-03-24T17:30:15;4.30;;;3.90;;
8462;SDS011;4268;52.506;13.462;2023-03-24T17:32:42;4.20;;;3.80;;
8462;SDS011;4268;52.506;13.462;2023-03-24T17:35:12;4.00;;;3.60;;
8462;SDS011;4268;52.506;13.462;2023-03-24T17:37:39;4.27;;;3.87;;
8462;SDS011;4268;52.506;13.462;2023-03-24T17:40:06;4.63;;;3.80;;
8462;SDS011;4268;52.506;13.462;2023-03-24T17:42:35;4.27;;;3.87;;
8462;SDS011;4268;52.506;13.462;2023-03-24T17:45:01;4.13;;;3.73;;